Airfield :
LOGIN :

Register | Disclaimer

   EN    FR    IT 

 










Legend :    VFR   Marginal VFR   IFR   Intensive IFR   Very Intensive IFR
Visi :
Ceiling :
>= 8 km
>= 3000ft
5 to 8 km
1000 to 3000 ft
1500m to 5 km
500 to 1000 ft
800 to 1500m
200 to 500 ft
< 800m
< 200 ft
Symbols :   Thunderstorms  Fog  Heavy snow  Heavy precipitations  Wind > 20 kt
SIGMETs :     Misc.  Thunderstorms  Icing  Turbulence  Mountain Waves  Volcanic Ashes






- Airport Elevation : 157 ft
- IATA code : LIL


LFQQ - Lille Lesquin

CURRENT METAR :
  • 101200Z AUTO 06010KT 7000 -RA SCT014/// BKN033/// BKN039/// ///CB 08/05 Q1010 TEMPO 4000 RA BKN007

EXPIRED METARs :
  • 101130Z AUTO 06009KT 8000 -RA SCT014/// SCT029/// OVC042/// ///CB 08/05 Q1010 TEMPO 4000 RA BKN007
  • 101100Z AUTO 05010KT 9999 -RA FEW014/// BKN047/// OVC054/// ///TCU 08/05 Q1011 TEMPO 4000 RA BKN030CB
  • 101030Z AUTO 05007KT 9000 -RA FEW011 BKN049 OVC056 08/05 Q1011 TEMPO 4000 RA BKN030CB
  • 101000Z AUTO 05006KT 5000 -RA BR SCT009 OVC023 07/06 Q1012 TEMPO RA BKN030CB
  • 100930Z AUTO 05006KT 5000 -RA BR FEW007/// BKN027/// BKN032/// ///TCU 07/06 Q1012 TEMPO RA BKN030CB

TAF TAF LFQQ
Valid from the 10 at 12:00 until the 11 at 18:00 UTC


101100Z 1012/1118 07007KT 9999 OVC035
TEMPO 1012/1101 4000 RA BKN030CB
PROB40 1012/1101 BKN007
BECMG 1015/1018 01010KT
PROB30
TEMPO 1018/1023 OVC003
TEMPO 1101/1106 1500 SNRA OVC006
TEMPO 1109/1117 01015G25KT
ATIS : +33 3 20 16 19 54



MET'MAP, your aeronautical weather chart ! - Copyright ORBIFLY December 2007 - Disclaimer

ORBIFLY MET'MAP TEAM :

Programming & Development : Alexandra Zaïnal
Concept & original design : Baudouin d'Aumeries
Assistance for programming : Marc-Olivier Méhu
Technical & hardware support : Manuel Goepfert

Contact : metmap@orbifly.com




SOURCES & CREDITS :

   NOAA